createdAt,value
2017-08-02T00:00:25.340Z,52.93
2017-08-02T00:02:52.904Z,40.87
2017-08-02T00:05:20.508Z,53.53
2017-08-02T00:07:48.844Z,47.93
2017-08-02T00:10:16.413Z,39.33
2017-08-02T00:12:44.000Z,45.43
2017-08-02T00:15:12.333Z,37.17
2017-08-02T00:17:39.987Z,36.27
2017-08-02T00:20:08.269Z,44.93
2017-08-02T00:22:36.648Z,56.27
2017-08-02T00:25:04.303Z,46.17
2017-08-02T00:27:31.893Z,43.33
2017-08-02T00:29:59.460Z,47.27
2017-08-02T00:32:27.026Z,64.90
2017-08-02T00:34:54.612Z,47.23
2017-08-02T00:37:22.184Z,48.70
2017-08-02T00:39:49.753Z,48.37
2017-08-02T00:42:17.344Z,44.23
2017-08-02T00:44:44.908Z,60.13
2017-08-02T00:47:12.487Z,50.67
2017-08-02T00:49:41.064Z,48.67
2017-08-02T00:52:08.629Z,41.17
2017-08-02T00:54:36.961Z,42.40
2017-08-02T00:57:04.557Z,39.90
2017-08-02T00:59:32.136Z,48.53
2017-08-02T01:02:00.469Z,44.70
2017-08-02T01:04:28.060Z,46.00
2017-08-02T01:06:55.628Z,51.20
2017-08-02T01:09:23.965Z,50.60
2017-08-02T01:11:51.570Z,49.27
2017-08-02T01:14:19.157Z,46.03
2017-08-02T01:16:46.720Z,40.70
2017-08-02T01:19:14.316Z,48.93
2017-08-02T01:21:41.884Z,41.63
2017-08-02T01:24:09.444Z,38.97
2017-08-02T01:26:37.071Z,38.40
2017-08-02T01:29:04.636Z,43.87
2017-08-02T01:31:32.200Z,42.30
2017-08-02T01:33:59.800Z,39.37
2017-08-02T01:36:28.132Z,41.23
2017-08-02T01:38:55.789Z,44.80
2017-08-02T01:41:23.384Z,44.40
2017-08-02T01:43:51.011Z,46.93
2017-08-02T01:46:18.577Z,45.70
2017-08-02T01:48:46.168Z,48.87
2017-08-02T01:51:13.737Z,41.83
2017-08-02T01:53:42.068Z,47.00
2017-08-02T01:56:09.729Z,49.00
2017-08-02T01:58:37.297Z,41.50
2017-08-02T02:01:04.860Z,39.63
2017-08-02T02:03:32.456Z,41.77
2017-08-02T02:06:00.886Z,38.80
2017-08-02T02:08:28.452Z,45.87
2017-08-02T02:10:56.060Z,40.23
2017-08-02T02:13:24.389Z,39.27
2017-08-02T02:15:51.960Z,44.73
2017-08-02T02:18:19.577Z,47.20
2017-08-02T02:20:47.140Z,42.17
2017-08-02T02:23:14.701Z,48.73
2017-08-02T02:25:42.301Z,42.57
2017-08-02T02:28:09.869Z,39.00
2017-08-02T02:30:37.433Z,47.23
2017-08-02T02:33:05.028Z,43.60
2017-08-02T02:35:32.594Z,46.33
2017-08-02T02:38:00.160Z,39.50
2017-08-02T02:40:27.752Z,48.10
2017-08-02T02:42:55.320Z,39.53
2017-08-02T02:45:22.866Z,40.90
2017-08-02T02:47:50.428Z,43.73
2017-08-02T02:50:17.974Z,46.57
2017-08-02T02:52:45.522Z,46.23
2017-08-02T02:55:13.076Z,40.90
2017-08-02T02:57:40.652Z,40.63
2017-08-02T03:00:08.188Z,42.07
2017-08-02T03:02:35.769Z,40.27
2017-08-02T03:05:03.337Z,46.33
2017-08-02T03:07:30.876Z,42.73
2017-08-02T03:09:58.462Z,39.40
2017-08-02T03:12:26.014Z,42.93
2017-08-02T03:14:53.570Z,40.07
2017-08-02T03:17:21.160Z,43.00
2017-08-02T03:19:48.709Z,42.33
2017-08-02T03:22:16.269Z,47.23
2017-08-02T03:24:43.845Z,46.20
2017-08-02T03:27:11.394Z,43.90
2017-08-02T03:29:38.923Z,52.60
2017-08-02T03:32:06.614Z,52.50
2017-08-02T03:34:34.180Z,54.80
2017-08-02T03:37:01.803Z,57.57
2017-08-02T03:39:29.381Z,67.17
2017-08-02T03:41:57.026Z,54.40
2017-08-02T03:44:24.584Z,55.50
2017-08-02T03:46:52.180Z,49.70
2017-08-02T03:49:19.727Z,53.80
2017-08-02T03:51:47.275Z,56.13
2017-08-02T03:54:14.873Z,46.30
2017-08-02T03:56:43.204Z,42.17
2017-08-02T03:59:10.777Z,41.23
2017-08-02T04:01:38.362Z,39.07
2017-08-02T04:04:05.896Z,43.70
2017-08-02T04:06:33.435Z,45.53
2017-08-02T04:09:00.988Z,49.50
2017-08-02T04:11:28.553Z,46.47
2017-08-02T04:13:56.103Z,55.93
2017-08-02T04:16:23.647Z,60.37
2017-08-02T04:18:51.212Z,53.97
2017-08-02T04:21:18.796Z,56.50
2017-08-02T04:23:46.328Z,68.23
2017-08-02T04:26:13.894Z,62.90
2017-08-02T04:28:41.492Z,63.83
2017-08-02T04:31:09.042Z,69.67
2017-08-02T04:33:36.604Z,61.00
2017-08-02T04:36:04.178Z,65.10
2017-08-02T04:38:31.708Z,74.00
2017-08-02T04:40:59.268Z,54.97
2017-08-02T04:43:26.847Z,48.37
2017-08-02T04:45:54.420Z,42.40
2017-08-02T04:48:21.965Z,45.30
2017-08-02T04:50:49.538Z,47.20
2017-08-02T04:53:17.164Z,44.33
2017-08-02T04:55:44.700Z,42.93
2017-08-02T04:58:12.347Z,53.43
2017-08-02T05:00:40.677Z,42.17
2017-08-02T05:03:08.217Z,44.80
2017-08-02T05:05:35.804Z,45.27
2017-08-02T05:08:03.354Z,49.30
2017-08-02T05:10:30.912Z,53.73
2017-08-02T05:12:58.508Z,50.13
2017-08-02T05:15:26.822Z,57.30
2017-08-02T05:17:54.356Z,69.00
2017-08-02T05:20:22.718Z,65.90
2017-08-02T05:22:51.052Z,75.30
2017-08-02T05:25:18.584Z,72.50
2017-08-02T05:27:46.139Z,73.73
2017-08-02T05:30:13.750Z,76.43
2017-08-02T05:32:41.308Z,82.40
2017-08-02T05:35:08.904Z,67.83
2017-08-02T05:37:37.226Z,73.60
2017-08-02T05:40:04.784Z,67.43
2017-08-02T05:42:32.389Z,73.73
2017-08-02T05:45:01.848Z,75.07
2017-08-02T05:47:30.307Z,91.20
2017-08-02T05:49:57.896Z,79.13
2017-08-02T05:52:25.428Z,73.00
2017-08-02T05:54:52.988Z,87.00
2017-08-02T05:57:20.555Z,79.07
2017-08-02T05:59:48.102Z,90.43
2017-08-02T06:02:15.652Z,93.40
2017-08-02T06:04:43.226Z,80.07
2017-08-02T06:07:10.779Z,74.13
2017-08-02T06:09:38.312Z,75.33
2017-08-02T06:12:06.668Z,82.63
2017-08-02T06:14:34.222Z,84.50
2017-08-02T06:17:01.766Z,75.53
2017-08-02T06:19:29.362Z,81.13
2017-08-02T06:21:56.910Z,84.07
2017-08-02T06:24:24.473Z,70.63
2017-08-02T06:26:52.034Z,54.90
2017-08-02T06:29:19.568Z,47.97
2017-08-02T06:31:47.213Z,46.53
2017-08-02T06:34:14.783Z,45.43
2017-08-02T06:36:42.437Z,55.00
2017-08-02T06:39:09.967Z,44.43
2017-08-02T06:41:37.539Z,53.93
2017-08-02T06:44:05.112Z,38.73
2017-08-02T06:46:32.662Z,48.63
2017-08-02T06:49:00.242Z,39.97
2017-08-02T06:51:27.790Z,34.70
2017-08-02T06:53:55.335Z,38.23
2017-08-02T06:56:22.895Z,46.50
2017-08-02T06:58:50.424Z,47.80
2017-08-02T07:01:18.739Z,42.40
2017-08-02T07:03:46.310Z,38.07
2017-08-02T07:06:13.844Z,44.73
2017-08-02T07:08:41.408Z,45.50
2017-08-02T07:11:08.982Z,37.93
2017-08-02T07:13:36.546Z,37.40
2017-08-02T07:16:04.080Z,46.07
2017-08-02T07:18:31.662Z,56.40
2017-08-02T07:20:59.215Z,54.83
2017-08-02T07:23:26.764Z,48.57
2017-08-02T07:25:54.344Z,41.83
2017-08-02T07:28:21.904Z,43.47
2017-08-02T07:30:49.453Z,37.10
2017-08-02T07:33:17.009Z,43.33
2017-08-02T07:35:44.568Z,44.63
2017-08-02T07:38:12.100Z,40.27
2017-08-02T07:40:39.676Z,39.13
2017-08-02T07:43:07.226Z,45.20
2017-08-02T07:45:34.792Z,40.10
2017-08-02T07:48:02.470Z,33.43
2017-08-02T07:50:30.022Z,34.50
2017-08-02T07:52:57.582Z,29.50
2017-08-02T07:55:25.162Z,32.63
2017-08-02T07:57:52.692Z,35.90
2017-08-02T08:00:20.242Z,31.97
2017-08-02T08:02:47.814Z,30.70
2017-08-02T08:05:15.364Z,23.80
2017-08-02T08:07:42.918Z,25.13
2017-08-02T08:10:10.499Z,22.20
2017-08-02T08:12:38.051Z,21.00
2017-08-02T08:15:05.588Z,20.90
2017-08-02T08:17:33.177Z,21.13
2017-08-02T08:20:00.843Z,25.93
2017-08-02T08:22:28.414Z,24.57
2017-08-02T08:24:56.061Z,23.27
2017-08-02T08:27:23.606Z,17.43
2017-08-02T08:29:51.163Z,16.57
2017-08-02T08:32:18.727Z,16.50
2017-08-02T08:34:46.267Z,20.03
2017-08-02T08:37:13.802Z,18.33
2017-08-02T08:39:41.364Z,27.40
2017-08-02T08:42:09.665Z,20.50
2017-08-02T08:44:37.199Z,16.43
2017-08-02T08:47:04.768Z,15.20
2017-08-02T08:49:33.105Z,22.00
2017-08-02T08:52:00.690Z,22.87
2017-08-02T08:54:28.242Z,18.50
2017-08-02T08:56:55.775Z,17.77
2017-08-02T08:59:23.350Z,24.90
2017-08-02T09:01:50.880Z,15.70
2017-08-02T09:04:18.471Z,9.10
2017-08-02T09:06:46.038Z,8.70
2017-08-02T09:09:13.586Z,7.80
2017-08-02T09:11:41.122Z,8.70
2017-08-02T09:14:08.690Z,4.67
2017-08-02T09:16:36.231Z,7.63
2017-08-02T09:19:03.766Z,8.90
2017-08-02T09:21:32.116Z,14.00
2017-08-02T09:23:59.662Z,4.97
2017-08-02T09:26:27.202Z,8.87
2017-08-02T09:28:54.784Z,5.80
2017-08-02T09:31:22.340Z,6.20
2017-08-02T09:33:49.872Z,5.50
2017-08-02T09:36:17.434Z,9.60
2017-08-02T09:38:44.987Z,8.27
2017-08-02T09:41:12.522Z,7.37
2017-08-02T09:43:40.102Z,6.30
2017-08-02T09:46:07.625Z,4.83
2017-08-02T09:48:35.953Z,3.90
2017-08-02T09:51:03.527Z,3.83
2017-08-02T09:53:31.070Z,5.03
2017-08-02T09:55:58.625Z,8.50
2017-08-02T09:58:26.194Z,7.00
2017-08-02T10:00:53.752Z,4.17
2017-08-02T10:03:21.280Z,7.27
2017-08-02T10:05:48.869Z,6.67
2017-08-02T10:08:16.415Z,7.70
2017-08-02T10:10:43.940Z,6.37
2017-08-02T10:13:12.256Z,4.53
2017-08-02T10:15:39.802Z,6.70
2017-08-02T10:18:07.356Z,4.50
2017-08-02T10:20:34.924Z,5.47
2017-08-02T10:23:02.448Z,4.93
2017-08-02T10:25:30.755Z,5.20
2017-08-02T10:27:58.324Z,7.63
2017-08-02T10:30:25.870Z,5.43
2017-08-02T10:32:53.428Z,12.90
2017-08-02T10:35:20.999Z,3.20
2017-08-02T10:37:48.521Z,8.17
2017-08-02T10:40:16.840Z,7.40
2017-08-02T10:42:44.393Z,6.30
2017-08-02T10:45:11.948Z,6.57
2017-08-02T10:47:39.494Z,6.53
2017-08-02T10:50:07.080Z,6.90
2017-08-02T10:52:34.622Z,6.00
2017-08-02T10:55:02.180Z,4.03
2017-08-02T10:57:29.740Z,4.50
2017-08-02T10:59:57.295Z,5.10
2017-08-02T11:02:24.839Z,6.87
2017-08-02T11:04:52.415Z,7.23
2017-08-02T11:07:19.948Z,12.93
2017-08-02T11:09:48.239Z,3.73
2017-08-02T11:12:15.803Z,5.63
2017-08-02T11:14:43.372Z,7.10
2017-08-02T11:17:10.939Z,7.03
2017-08-02T11:19:38.483Z,6.07
2017-08-02T11:22:06.039Z,3.80
2017-08-02T11:24:33.628Z,10.80
2017-08-02T11:27:01.156Z,7.60
2017-08-02T11:29:28.698Z,5.10
2017-08-02T11:31:57.056Z,7.43
2017-08-02T11:34:24.602Z,7.00
2017-08-02T11:36:52.146Z,7.17
2017-08-02T11:39:20.202Z,4.87
2017-08-02T11:41:47.760Z,4.57
2017-08-02T11:44:15.321Z,11.93
2017-08-02T11:46:42.890Z,4.27
2017-08-02T11:49:10.426Z,4.93
2017-08-02T11:51:37.960Z,12.40
2017-08-02T11:54:06.309Z,10.50
2017-08-02T11:56:33.873Z,8.40
2017-08-02T11:59:01.408Z,7.07
2017-08-02T12:01:28.974Z,3.40
2017-08-02T12:03:56.613Z,7.10
2017-08-02T12:06:24.186Z,15.97
2017-08-02T12:08:51.720Z,9.53
2017-08-02T12:11:19.260Z,5.00
2017-08-02T12:13:47.597Z,4.03
2017-08-02T12:16:15.232Z,7.93
2017-08-02T12:18:42.818Z,7.37
2017-08-02T12:21:10.352Z,6.63
2017-08-02T12:23:37.918Z,10.50
2017-08-02T12:26:05.473Z,3.40
2017-08-02T12:28:33.031Z,3.67
2017-08-02T12:31:00.590Z,6.03
2017-08-02T12:33:28.144Z,5.60
2017-08-02T12:35:55.698Z,10.13
2017-08-02T12:38:23.228Z,6.97
2017-08-02T12:40:51.712Z,11.90
2017-08-02T12:43:19.283Z,9.70
2017-08-02T12:45:46.833Z,4.10
2017-08-02T12:48:14.409Z,11.53
2017-08-02T12:50:41.956Z,7.17
2017-08-02T12:53:09.516Z,6.60
2017-08-02T12:55:37.086Z,7.10
2017-08-02T12:58:04.645Z,6.50
2017-08-02T13:00:32.172Z,6.47
2017-08-02T13:03:00.511Z,8.37
2017-08-02T13:05:28.040Z,8.57
2017-08-02T13:07:55.586Z,10.17
2017-08-02T13:10:23.557Z,14.73
2017-08-02T13:12:51.099Z,7.33
2017-08-02T13:15:18.677Z,3.50
2017-08-02T13:17:46.268Z,4.10
2017-08-02T13:20:13.803Z,10.07
2017-08-02T13:22:41.342Z,8.00
2017-08-02T13:25:08.918Z,8.57
2017-08-02T13:27:36.470Z,6.80
2017-08-02T13:30:04.032Z,7.50
2017-08-02T13:32:31.615Z,9.00
2017-08-02T13:34:59.166Z,9.10
2017-08-02T13:37:26.728Z,4.73
2017-08-02T13:39:54.265Z,8.43
2017-08-02T13:42:21.792Z,10.17
2017-08-02T13:44:50.205Z,11.23
2017-08-02T13:47:17.746Z,7.10
2017-08-02T13:49:45.314Z,6.53
2017-08-02T13:52:12.863Z,10.47
2017-08-02T13:54:40.402Z,3.57
2017-08-02T13:57:08.734Z,8.10
2017-08-02T13:59:36.288Z,5.50
2017-08-02T14:02:03.872Z,9.00
2017-08-02T14:04:31.410Z,6.93
2017-08-02T14:06:58.950Z,4.40
2017-08-02T14:09:26.519Z,3.00
2017-08-02T14:11:54.066Z,8.80
2017-08-02T14:14:21.627Z,7.13
2017-08-02T14:16:49.189Z,8.70
2017-08-02T14:19:16.735Z,7.90
2017-08-02T14:21:44.314Z,10.63
2017-08-02T14:24:11.854Z,5.77
2017-08-02T14:26:39.408Z,8.70
2017-08-02T14:29:06.989Z,4.40
2017-08-02T14:31:34.523Z,2.83
2017-08-02T14:34:02.062Z,3.00
2017-08-02T14:36:30.398Z,2.37
2017-08-02T14:38:57.939Z,3.20
2017-08-02T14:41:25.481Z,4.97
2017-08-02T14:43:53.036Z,6.93
2017-08-02T14:46:20.602Z,3.83
2017-08-02T14:48:48.184Z,5.33
2017-08-02T14:51:15.754Z,2.30
2017-08-02T14:53:43.284Z,7.50
2017-08-02T14:56:10.838Z,5.23
2017-08-02T14:58:38.396Z,5.23
2017-08-02T15:01:06.792Z,3.37
2017-08-02T15:03:34.353Z,3.57
2017-08-02T15:06:01.956Z,3.30
2017-08-02T15:08:29.497Z,3.90
2017-08-02T15:10:57.060Z,2.70
2017-08-02T15:13:24.644Z,2.00
2017-08-02T15:15:52.973Z,4.43
2017-08-02T15:18:20.518Z,3.80
2017-08-02T15:20:48.090Z,2.70
2017-08-02T15:23:15.646Z,6.60
2017-08-02T15:25:43.195Z,2.20
2017-08-02T15:28:10.771Z,2.30
2017-08-02T15:30:38.300Z,2.90
2017-08-02T15:33:05.848Z,1.77
2017-08-02T15:35:34.186Z,2.77
2017-08-02T15:38:01.730Z,2.37
2017-08-02T15:40:29.274Z,4.30
2017-08-02T15:42:56.850Z,7.30
2017-08-02T15:45:24.394Z,3.40
2017-08-02T15:47:51.920Z,2.50
2017-08-02T15:50:20.269Z,2.40
2017-08-02T15:52:47.804Z,2.73
2017-08-02T15:55:15.337Z,4.10
2017-08-02T15:57:42.903Z,3.40
2017-08-02T16:00:10.442Z,4.13
2017-08-02T16:02:38.027Z,5.80
2017-08-02T16:05:05.590Z,2.83
2017-08-02T16:07:33.136Z,6.53
2017-08-02T16:10:00.660Z,2.60
2017-08-02T16:12:28.988Z,3.43
2017-08-02T16:14:56.549Z,9.93
2017-08-02T16:17:24.094Z,4.63
2017-08-02T16:19:51.676Z,6.33
2017-08-02T16:22:19.218Z,2.67
2017-08-02T16:24:46.747Z,7.00
2017-08-02T16:27:14.306Z,3.80
2017-08-02T16:29:41.847Z,2.73
2017-08-02T16:32:10.170Z,7.20
2017-08-02T16:34:37.734Z,6.60
2017-08-02T16:37:05.393Z,3.07
2017-08-02T16:39:32.933Z,4.97
2017-08-02T16:42:00.495Z,9.07
2017-08-02T16:44:28.034Z,6.37
2017-08-02T16:46:56.343Z,5.03
2017-08-02T16:49:23.910Z,5.30
2017-08-02T16:51:51.467Z,9.43
2017-08-02T16:54:19.009Z,7.10
2017-08-02T16:56:46.601Z,7.77
2017-08-02T16:59:14.154Z,6.10
2017-08-02T17:01:42.579Z,4.40
2017-08-02T17:04:10.154Z,12.50
2017-08-02T17:06:37.695Z,4.00
2017-08-02T17:09:05.335Z,3.47
2017-08-02T17:11:33.737Z,4.23
2017-08-02T17:14:02.094Z,5.40
2017-08-02T17:16:29.694Z,4.40
2017-08-02T17:18:57.272Z,6.77
2017-08-02T17:21:24.893Z,4.07
2017-08-02T17:23:52.448Z,7.80
2017-08-02T17:26:20.796Z,7.53
2017-08-02T17:28:48.324Z,10.53
2017-08-02T17:31:15.870Z,6.23
2017-08-02T17:33:43.965Z,10.43
2017-08-02T17:36:13.470Z,10.50
2017-08-02T17:38:41.036Z,7.80
2017-08-02T17:41:08.625Z,7.27
2017-08-02T17:43:36.174Z,6.57
2017-08-02T17:46:03.810Z,8.10
2017-08-02T17:48:31.378Z,4.23
2017-08-02T17:50:58.918Z,6.93
2017-08-02T17:53:26.461Z,6.50
2017-08-02T17:55:54.038Z,13.97
2017-08-02T17:58:21.592Z,6.83
2017-08-02T18:00:49.139Z,9.90
2017-08-02T18:03:16.695Z,4.33
2017-08-02T18:05:44.224Z,7.90
2017-08-02T18:08:12.563Z,11.70
2017-08-02T18:10:40.110Z,5.13
2017-08-02T18:13:07.786Z,7.53
2017-08-02T18:15:35.393Z,5.73
2017-08-02T18:18:03.806Z,5.20
2017-08-02T18:20:31.336Z,9.33
2017-08-02T18:22:58.946Z,5.90
2017-08-02T18:25:26.476Z,10.30
2017-08-02T18:27:54.056Z,8.20
2017-08-02T18:30:21.585Z,6.53
2017-08-02T18:32:49.162Z,6.03
2017-08-02T18:35:16.736Z,7.50
2017-08-02T18:37:44.274Z,8.00
2017-08-02T18:40:11.840Z,8.10
2017-08-02T18:42:40.151Z,7.67
2017-08-02T18:45:07.712Z,17.53
2017-08-02T18:47:35.301Z,10.07
2017-08-02T18:50:02.851Z,6.10
2017-08-02T18:52:31.152Z,10.80
2017-08-02T18:54:58.840Z,12.53
2017-08-02T18:57:26.375Z,4.83
2017-08-02T18:59:53.929Z,9.07
2017-08-02T19:02:21.510Z,5.17
2017-08-02T19:04:49.048Z,6.83
2017-08-02T19:07:16.593Z,6.67
2017-08-02T19:09:44.932Z,6.30
2017-08-02T19:12:12.467Z,8.07
2017-08-02T19:14:40.012Z,8.90
2017-08-02T19:17:07.564Z,6.67
2017-08-02T19:19:35.110Z,8.37
2017-08-02T19:22:03.442Z,7.43
2017-08-02T19:24:31.011Z,8.73
2017-08-02T19:26:58.554Z,9.23
2017-08-02T19:29:26.095Z,7.43
2017-08-02T19:31:53.757Z,8.60
2017-08-02T19:34:21.315Z,11.17
2017-08-02T19:36:48.874Z,8.87
2017-08-02T19:39:16.428Z,10.63
2017-08-02T19:41:43.994Z,9.97
2017-08-02T19:44:11.538Z,14.20
2017-08-02T19:46:39.110Z,10.20
2017-08-02T19:49:06.680Z,16.30
2017-08-02T19:51:34.226Z,12.57
2017-08-02T19:54:01.812Z,12.67
2017-08-02T19:56:29.354Z,10.67
2017-08-02T19:58:56.941Z,11.30
2017-08-02T20:01:24.516Z,14.30
2017-08-02T20:03:52.835Z,13.23
2017-08-02T20:06:20.390Z,16.03
2017-08-02T20:08:47.958Z,24.17
2017-08-02T20:11:15.530Z,15.57
2017-08-02T20:13:43.111Z,25.03
2017-08-02T20:16:10.670Z,19.63
2017-08-02T20:18:38.234Z,17.60
2017-08-02T20:21:05.833Z,23.30
2017-08-02T20:23:33.400Z,13.20
2017-08-02T20:26:00.950Z,17.20
2017-08-02T20:28:28.504Z,16.93
2017-08-02T20:30:56.818Z,15.47
2017-08-02T20:33:24.418Z,22.50
2017-08-02T20:35:51.966Z,17.43
2017-08-02T20:38:19.528Z,18.40
2017-08-02T20:40:47.091Z,14.80
2017-08-02T20:43:14.652Z,20.07
2017-08-02T20:45:42.184Z,16.83
2017-08-02T20:48:09.937Z,16.00
2017-08-02T20:50:37.504Z,14.87
2017-08-02T20:53:05.088Z,22.40
2017-08-02T20:55:32.636Z,29.50
2017-08-02T20:58:00.255Z,19.53
2017-08-02T21:00:27.872Z,20.23
2017-08-02T21:02:55.421Z,20.30
2017-08-02T21:05:23.054Z,18.43
2017-08-02T21:07:50.612Z,21.57
2017-08-02T21:10:18.173Z,25.93
2017-08-02T21:12:45.736Z,18.97
2017-08-02T21:15:13.332Z,20.47
2017-08-02T21:17:40.878Z,23.03
2017-08-02T21:20:08.433Z,18.93
2017-08-02T21:22:36.026Z,22.80
2017-08-02T21:25:04.336Z,49.93
2017-08-02T21:27:31.903Z,23.43
2017-08-02T21:29:59.447Z,18.27
2017-08-02T21:32:27.014Z,20.60
2017-08-02T21:34:54.564Z,23.60
2017-08-02T21:37:22.138Z,20.20
2017-08-02T21:39:49.708Z,27.90
2017-08-02T21:42:17.258Z,28.17
2017-08-02T21:44:44.822Z,25.93
2017-08-02T21:47:12.370Z,24.63
2017-08-02T21:49:39.942Z,21.37
2017-08-02T21:52:07.500Z,22.70
2017-08-02T21:54:35.052Z,24.47
2017-08-02T21:57:02.629Z,21.77
2017-08-02T21:59:30.175Z,25.47
2017-08-02T22:01:57.704Z,41.47
2017-08-02T22:04:26.044Z,30.63
2017-08-02T22:06:53.616Z,27.10
2017-08-02T22:09:21.156Z,26.23
2017-08-02T22:11:48.735Z,27.93
2017-08-02T22:14:16.301Z,31.27
2017-08-02T22:16:44.604Z,22.93
2017-08-02T22:19:12.174Z,26.17
2017-08-02T22:21:39.722Z,30.80
2017-08-02T22:24:07.255Z,32.30
2017-08-02T22:26:34.808Z,30.03
2017-08-02T22:29:02.340Z,26.90
2017-08-02T22:31:29.902Z,32.63
2017-08-02T22:33:57.486Z,34.83
2017-08-02T22:36:25.029Z,30.70
2017-08-02T22:38:52.602Z,30.43
2017-08-02T22:41:20.168Z,35.97
2017-08-02T22:43:48.469Z,34.40
2017-08-02T22:46:16.033Z,36.30
2017-08-02T22:48:43.578Z,42.00
2017-08-02T22:51:11.890Z,36.10
2017-08-02T22:53:39.452Z,38.20
2017-08-02T22:56:06.998Z,34.30
2017-08-02T22:58:34.568Z,34.63
2017-08-02T23:01:02.146Z,36.17
2017-08-02T23:03:29.708Z,40.33
2017-08-02T23:05:57.254Z,37.50
2017-08-02T23:08:24.829Z,38.00
2017-08-02T23:10:52.374Z,36.03
2017-08-02T23:13:19.921Z,45.47
2017-08-02T23:15:47.495Z,42.50
2017-08-02T23:18:15.057Z,45.83
2017-08-02T23:20:42.615Z,45.57
2017-08-02T23:23:10.175Z,38.17
2017-08-02T23:25:37.722Z,42.37
2017-08-02T23:28:05.280Z,40.93
2017-08-02T23:30:32.822Z,40.00
2017-08-02T23:33:00.356Z,35.53
2017-08-02T23:35:28.709Z,43.80
2017-08-02T23:37:56.244Z,41.77
2017-08-02T23:40:23.794Z,39.30
2017-08-02T23:42:51.370Z,38.43
2017-08-02T23:45:18.924Z,36.67
2017-08-02T23:47:46.483Z,37.60
2017-08-02T23:50:14.054Z,37.93
2017-08-02T23:52:41.608Z,45.43
2017-08-02T23:55:09.140Z,34.70
2017-08-02T23:57:36.725Z,35.57
